KRCR/RCR METAR and TAF weather

Enter ICAO airport designator
Station Type Date Time Source
KRCR METAR 2019/08/22 08:55 UTC NOAA

KRCR 220855Z AUTO 00000KT 7SM SCT100 22/20 A2997 RMK AO2


Station Type Date Time Source
KRCR Decoded METAR 2019/08/22 08:55 UTC NOAA

Station name not available
Aug 22, 2019 - 04:55 AM EDT / 2019.08.22 0855 UTC
Wind: Calm:0
Visibility: 7 mile(s):0
Sky conditions: partly cloudy
Temperature: 71 F (22 C)
Dew Point: 68 F (20 C)
Relative Humidity: 88%
Pressure (altimeter): 29.97 in. Hg (1014 hPa)
ob: KRCR 220855Z AUTO 00000KT 7SM SCT100 22/20 A2997 RMK AO2
cycle: 9

Station Type Date Time Source
KRCR TAF UTC NOAA

Error!

Example: see airport list